createdAt,value
2019-01-24T00:03:43.485Z,31.90
2019-01-24T00:09:49.497Z,32.00
2019-01-24T00:15:55.222Z,31.23
2019-01-24T00:22:01.135Z,33.60
2019-01-24T00:28:25.936Z,30.37
2019-01-24T00:34:31.837Z,32.43
2019-01-24T00:40:37.580Z,30.80
2019-01-24T00:46:43.377Z,31.93
2019-01-24T00:52:49.372Z,34.57
2019-01-24T00:58:55.101Z,31.40
2019-01-24T01:05:00.796Z,34.60
2019-01-24T01:11:06.933Z,34.00
2019-01-24T01:17:13.424Z,35.67
2019-01-24T01:23:19.820Z,35.33
2019-01-24T01:29:25.688Z,34.87
2019-01-24T01:35:31.428Z,36.20
2019-01-24T01:41:37.191Z,34.73
2019-01-24T01:47:42.914Z,35.33
2019-01-24T01:53:48.644Z,34.57
2019-01-24T01:59:54.546Z,35.53
2019-01-24T02:06:00.390Z,35.23
2019-01-24T02:12:06.184Z,35.80
2019-01-24T02:18:12.073Z,33.53
2019-01-24T02:24:18.193Z,35.77
2019-01-24T02:30:27.158Z,35.70
2019-01-24T02:36:33.668Z,34.63
2019-01-24T02:42:40.667Z,36.90
2019-01-24T02:48:46.432Z,37.43
2019-01-24T02:54:52.323Z,35.60
2019-01-24T03:00:58.050Z,37.93
2019-01-24T03:07:03.860Z,35.20
2019-01-24T03:13:09.567Z,37.13
2019-01-24T03:19:16.473Z,34.80
2019-01-24T03:25:22.507Z,36.63
2019-01-24T03:31:28.324Z,35.70
2019-01-24T03:37:34.395Z,36.57
2019-01-24T03:43:40.282Z,38.37
2019-01-24T03:49:46.119Z,37.73
2019-01-24T03:55:52.303Z,37.03
2019-01-24T04:01:58.393Z,38.17
2019-01-24T04:08:04.180Z,38.33
2019-01-24T04:14:10.146Z,38.57
2019-01-24T04:20:16.977Z,40.37
2019-01-24T04:26:23.072Z,36.70
2019-01-24T04:32:29.500Z,38.80
2019-01-24T04:38:35.666Z,37.57
2019-01-24T04:44:41.551Z,36.80
2019-01-24T04:50:47.294Z,39.40
2019-01-24T04:56:53.254Z,38.37
2019-01-24T05:02:59.306Z,38.63
2019-01-24T05:09:07.923Z,39.27
2019-01-24T05:15:14.108Z,37.40
2019-01-24T05:21:19.797Z,39.33
2019-01-24T05:27:25.766Z,39.47
2019-01-24T05:33:31.781Z,38.43
2019-01-24T05:39:37.771Z,37.40
2019-01-24T05:45:43.515Z,38.67
2019-01-24T05:51:49.391Z,39.83
2019-01-24T05:57:55.307Z,38.77
2019-01-24T06:04:01.114Z,39.77
2019-01-24T06:10:11.765Z,39.40
2019-01-24T06:16:17.753Z,38.03
2019-01-24T06:22:23.809Z,39.10
2019-01-24T06:28:29.715Z,38.63
2019-01-24T06:34:35.969Z,39.37
2019-01-24T06:40:41.844Z,37.93
2019-01-24T06:46:48.231Z,40.63
2019-01-24T06:52:54.117Z,37.70
2019-01-24T06:58:59.844Z,39.40
2019-01-24T07:05:06.174Z,38.00
2019-01-24T07:11:11.981Z,39.30
2019-01-24T07:17:17.772Z,38.63
2019-01-24T07:23:23.518Z,39.00
2019-01-24T07:29:31.171Z,38.77
2019-01-24T07:35:37.180Z,39.57
2019-01-24T07:41:43.190Z,38.70
2019-01-24T07:47:49.084Z,40.13
2019-01-24T07:53:56.051Z,38.70
2019-01-24T08:00:03.976Z,37.97
2019-01-24T08:06:09.746Z,38.70
2019-01-24T08:12:15.711Z,38.90
2019-01-24T08:18:21.593Z,39.60
2019-01-24T08:24:27.603Z,39.67
2019-01-24T08:30:34.875Z,38.40
2019-01-24T08:36:40.608Z,39.67
2019-01-24T08:42:47.276Z,39.70
2019-01-24T08:48:53.388Z,39.43
2019-01-24T08:54:59.365Z,40.60
2019-01-24T09:01:06.744Z,42.37
2019-01-24T09:07:12.917Z,40.10
2019-01-24T09:13:19.109Z,42.03
2019-01-24T09:19:25.121Z,41.63
2019-01-24T09:25:30.990Z,41.80
2019-01-24T09:31:37.273Z,39.67
2019-01-24T09:37:43.319Z,40.13
2019-01-24T09:43:49.262Z,39.57
2019-01-24T09:49:55.422Z,40.97
2019-01-24T09:56:01.260Z,40.77
2019-01-24T10:02:07.549Z,43.10
2019-01-24T10:08:16.338Z,39.27
2019-01-24T10:14:24.228Z,42.50
2019-01-24T10:20:30.587Z,41.57
2019-01-24T10:26:42.572Z,42.87
2019-01-24T10:32:49.335Z,41.63
2019-01-24T10:38:55.929Z,43.80
2019-01-24T10:45:01.804Z,41.10
2019-01-24T10:51:07.861Z,41.97
2019-01-24T10:57:13.818Z,44.07
2019-01-24T11:03:20.857Z,43.10
2019-01-24T11:09:26.850Z,43.73
2019-01-24T11:15:39.130Z,44.60
2019-01-24T11:21:45.133Z,44.37
2019-01-24T11:27:53.445Z,42.93
2019-01-24T11:33:59.495Z,43.87
2019-01-24T11:40:06.475Z,44.50
2019-01-24T11:46:13.774Z,43.47
2019-01-24T11:52:19.631Z,42.17
2019-01-24T11:58:26.775Z,42.50
2019-01-24T12:04:32.642Z,42.50
2019-01-24T12:10:38.365Z,42.90
2019-01-24T12:16:45.964Z,42.27
2019-01-24T12:22:51.751Z,44.83
2019-01-24T12:28:57.784Z,43.97
2019-01-24T12:35:03.799Z,45.80
2019-01-24T12:41:09.811Z,45.53
2019-01-24T12:47:15.514Z,44.47
2019-01-24T12:53:21.505Z,45.57
2019-01-24T12:59:27.342Z,49.37
2019-01-24T13:05:33.586Z,50.47
2019-01-24T13:11:39.541Z,51.93
2019-01-24T13:17:45.676Z,54.13
2019-01-24T13:23:51.433Z,56.23
2019-01-24T13:29:57.187Z,54.70
2019-01-24T13:36:06.187Z,57.17
2019-01-24T13:42:12.197Z,59.50
2019-01-24T13:48:18.143Z,57.13
2019-01-24T13:54:26.479Z,55.97
2019-01-24T14:00:38.490Z,59.63
2019-01-24T14:06:47.655Z,58.57
2019-01-24T14:12:52.920Z,54.33
2019-01-24T14:18:58.931Z,54.27
2019-01-24T14:25:05.517Z,48.17
2019-01-24T14:31:11.486Z,48.20
2019-01-24T14:37:17.737Z,49.67
2019-01-24T14:43:25.155Z,49.87
2019-01-24T14:49:30.908Z,48.47
2019-01-24T14:55:36.847Z,47.50
2019-01-24T15:01:43.765Z,49.53
2019-01-24T15:07:49.606Z,47.97
2019-01-24T15:13:55.378Z,50.37
2019-01-24T15:20:01.091Z,47.60
2019-01-24T15:26:06.955Z,47.80
2019-01-24T15:32:12.734Z,46.10
2019-01-24T15:38:18.555Z,47.20
2019-01-24T15:44:24.520Z,47.67
2019-01-24T15:50:30.369Z,48.37
2019-01-24T15:56:36.070Z,47.03
2019-01-24T16:02:43.451Z,45.83
2019-01-24T16:08:49.349Z,45.70
2019-01-24T16:14:55.299Z,46.33
2019-01-24T16:21:01.104Z,46.07
2019-01-24T16:27:06.985Z,46.60
2019-01-24T16:33:12.732Z,46.03
2019-01-24T16:39:18.559Z,44.87
2019-01-24T16:45:26.689Z,46.30
2019-01-24T16:51:32.415Z,45.87
2019-01-24T16:57:38.206Z,44.30
2019-01-24T17:03:44.027Z,44.57
2019-01-24T17:09:49.907Z,45.67
2019-01-24T17:15:55.595Z,45.00
2019-01-24T17:22:01.476Z,44.67
2019-01-24T17:28:07.634Z,44.67
2019-01-24T17:34:13.494Z,45.37
2019-01-24T17:40:28.082Z,42.10
2019-01-24T17:46:33.948Z,42.17
2019-01-24T17:52:39.697Z,42.83
2019-01-24T17:58:45.442Z,43.23
2019-01-24T18:04:51.287Z,45.93
2019-01-24T18:10:57.407Z,46.20
2019-01-24T18:17:03.233Z,45.33
2019-01-24T18:23:09.307Z,43.40
2019-01-24T18:29:15.207Z,44.77
2019-01-24T18:35:21.600Z,43.87
2019-01-24T18:41:27.444Z,42.13
2019-01-24T18:47:33.381Z,44.10
2019-01-24T18:53:39.323Z,45.13
2019-01-24T18:59:47.021Z,43.10
2019-01-24T19:05:53.299Z,43.63
2019-01-24T19:11:59.403Z,44.73
2019-01-24T19:18:07.327Z,44.43
2019-01-24T19:24:13.596Z,45.23
2019-01-24T19:30:26.650Z,44.67
2019-01-24T19:36:32.565Z,44.43
2019-01-24T19:42:38.603Z,45.97
2019-01-24T19:48:45.523Z,45.23
2019-01-24T19:54:51.914Z,45.50
2019-01-24T20:00:58.089Z,44.77
2019-01-24T20:07:04.052Z,42.53
2019-01-24T20:13:10.303Z,42.17
2019-01-24T20:19:16.236Z,43.23
2019-01-24T20:25:25.384Z,42.20
2019-01-24T20:31:32.961Z,43.27
2019-01-24T20:37:38.821Z,43.57
2019-01-24T20:43:44.656Z,41.90
2019-01-24T20:49:51.810Z,45.53
2019-01-24T20:55:57.727Z,42.10
2019-01-24T21:02:03.648Z,44.23
2019-01-24T21:08:10.090Z,43.30
2019-01-24T21:14:16.355Z,43.57
2019-01-24T21:20:24.921Z,42.33
2019-01-24T21:26:33.019Z,44.70
2019-01-24T21:32:39.000Z,43.93
2019-01-24T21:38:45.350Z,45.40
2019-01-24T21:44:51.198Z,42.80
2019-01-24T21:50:57.604Z,44.43
2019-01-24T21:57:03.700Z,45.97
2019-01-24T22:03:09.607Z,45.60
2019-01-24T22:09:15.477Z,41.63
2019-01-24T22:15:24.637Z,44.90
2019-01-24T22:21:30.466Z,44.10
2019-01-24T22:27:36.586Z,46.13
2019-01-24T22:33:42.663Z,46.20
2019-01-24T22:39:48.420Z,45.37
2019-01-24T22:45:54.504Z,49.87
2019-01-24T22:52:00.558Z,47.40
2019-01-24T22:58:07.847Z,48.00
2019-01-24T23:04:20.479Z,47.30
2019-01-24T23:10:26.218Z,48.50
2019-01-24T23:16:32.093Z,49.37
2019-01-24T23:22:38.169Z,45.40
2019-01-24T23:28:43.921Z,47.43
2019-01-24T23:34:49.990Z,47.33
2019-01-24T23:40:55.784Z,47.87
2019-01-24T23:47:01.625Z,47.83
2019-01-24T23:53:07.788Z,47.60
2019-01-24T23:59:13.706Z,48.17
